createdAt,value
2018-09-11T00:01:54.915Z,16.40
2018-09-11T00:04:24.062Z,16.40
2018-09-11T00:06:52.760Z,16.40
2018-09-11T00:09:21.316Z,16.40
2018-09-11T00:11:49.871Z,16.40
2018-09-11T00:14:18.385Z,16.40
2018-09-11T00:16:47.026Z,16.40
2018-09-11T00:19:15.534Z,16.30
2018-09-11T00:21:44.039Z,16.30
2018-09-11T00:24:12.614Z,16.30
2018-09-11T00:26:41.140Z,16.30
2018-09-11T00:29:10.155Z,16.30
2018-09-11T00:31:38.696Z,16.30
2018-09-11T00:34:08.031Z,16.30
2018-09-11T00:36:36.604Z,16.30
2018-09-11T00:39:06.271Z,16.30
2018-09-11T00:41:34.794Z,16.20
2018-09-11T00:44:03.284Z,16.20
2018-09-11T00:46:31.795Z,16.20
2018-09-11T00:49:00.287Z,16.20
2018-09-11T00:51:28.911Z,16.20
2018-09-11T00:53:57.398Z,16.20
2018-09-11T00:56:26.010Z,16.20
2018-09-11T00:58:54.500Z,16.10
2018-09-11T01:01:23.692Z,16.10
2018-09-11T01:03:52.830Z,16.10
2018-09-11T01:06:21.338Z,16.10
2018-09-11T01:08:50.379Z,16.10
2018-09-11T01:11:18.858Z,16.10
2018-09-11T01:13:47.339Z,16.10
2018-09-11T01:16:15.870Z,16.00
2018-09-11T01:18:44.375Z,16.00
2018-09-11T01:21:13.907Z,16.00
2018-09-11T01:23:43.120Z,16.00
2018-09-11T01:26:12.413Z,16.00
2018-09-11T01:28:41.624Z,16.00
2018-09-11T01:31:10.213Z,15.90
2018-09-11T01:33:38.858Z,15.90
2018-09-11T01:36:07.370Z,15.90
2018-09-11T01:38:36.008Z,15.90
2018-09-11T01:41:04.510Z,15.90
2018-09-11T01:43:33.070Z,15.90
2018-09-11T01:46:01.517Z,15.90
2018-09-11T01:48:30.105Z,15.90
2018-09-11T01:50:58.732Z,15.90
2018-09-11T01:53:27.227Z,15.90
2018-09-11T01:55:56.323Z,15.90
2018-09-11T01:58:25.091Z,15.90
2018-09-11T02:00:53.536Z,15.90
2018-09-11T02:03:22.015Z,15.90
2018-09-11T02:05:50.523Z,15.90
2018-09-11T02:08:19.046Z,16.00
2018-09-11T02:10:47.530Z,16.00
2018-09-11T02:13:17.221Z,15.90
2018-09-11T02:15:45.766Z,15.90
2018-09-11T02:18:14.228Z,15.90
2018-09-11T02:20:42.882Z,15.90
2018-09-11T02:23:11.420Z,15.90
2018-09-11T02:25:39.999Z,15.90
2018-09-11T02:28:09.111Z,15.90
2018-09-11T02:30:37.596Z,15.90
2018-09-11T02:33:06.125Z,15.90
2018-09-11T02:35:34.575Z,15.90
2018-09-11T02:38:03.071Z,15.90
2018-09-11T02:40:31.781Z,15.90
2018-09-11T02:43:00.255Z,15.90
2018-09-11T02:45:28.825Z,15.90
2018-09-11T02:47:58.024Z,15.90
2018-09-11T02:50:27.519Z,15.80
2018-09-11T02:52:56.108Z,15.70
2018-09-11T02:55:25.217Z,15.70
2018-09-11T02:57:53.979Z,15.70
2018-09-11T03:00:23.260Z,15.70
2018-09-11T03:02:52.468Z,15.70
2018-09-11T03:05:21.275Z,15.60
2018-09-11T03:07:50.523Z,15.60
2018-09-11T03:10:19.994Z,15.60
2018-09-11T03:12:49.319Z,15.60
2018-09-11T03:15:17.815Z,15.60
2018-09-11T03:17:46.871Z,15.60
2018-09-11T03:20:15.372Z,15.60
2018-09-11T03:22:43.899Z,15.60
2018-09-11T03:25:12.373Z,15.60
2018-09-11T03:27:40.838Z,15.60
2018-09-11T03:30:09.644Z,15.50
2018-09-11T03:32:38.179Z,15.50
2018-09-11T03:35:06.810Z,15.50
2018-09-11T03:37:36.056Z,15.40
2018-09-11T03:40:04.521Z,15.40
2018-09-11T03:42:33.501Z,15.40
2018-09-11T03:45:02.035Z,15.30
2018-09-11T03:47:30.641Z,15.30
2018-09-11T03:49:59.624Z,15.30
2018-09-11T03:52:28.135Z,15.30
2018-09-11T03:54:57.326Z,15.30
2018-09-11T03:57:25.976Z,15.30
2018-09-11T03:59:54.515Z,15.20
2018-09-11T04:02:23.700Z,15.30
2018-09-11T04:04:52.394Z,15.30
2018-09-11T04:07:21.660Z,15.30
2018-09-11T04:09:50.186Z,15.30
2018-09-11T04:12:18.814Z,15.30
2018-09-11T04:14:47.345Z,15.30
2018-09-11T04:17:16.431Z,15.20
2018-09-11T04:19:44.969Z,15.20
2018-09-11T04:22:13.627Z,15.20
2018-09-11T04:24:42.379Z,15.20
2018-09-11T04:27:10.900Z,15.20
2018-09-11T04:29:39.359Z,15.20
2018-09-11T04:32:07.849Z,15.20
2018-09-11T04:34:36.346Z,15.20
2018-09-11T04:37:05.512Z,15.10
2018-09-11T04:39:34.328Z,15.10
2018-09-11T04:42:02.995Z,15.10
2018-09-11T04:44:31.566Z,15.00
2018-09-11T04:47:00.015Z,15.10
2018-09-11T04:49:29.339Z,15.00
2018-09-11T04:51:57.870Z,15.00
2018-09-11T04:54:26.367Z,15.00
2018-09-11T04:56:55.629Z,15.00
2018-09-11T04:59:24.860Z,15.00
2018-09-11T05:01:53.392Z,15.00
2018-09-11T05:04:22.028Z,15.00
2018-09-11T05:06:51.399Z,15.00
2018-09-11T05:09:19.886Z,15.00
2018-09-11T05:11:48.453Z,15.00
2018-09-11T05:14:16.993Z,15.00
2018-09-11T05:16:45.629Z,14.90
2018-09-11T05:19:14.462Z,15.00
2018-09-11T05:21:42.947Z,15.00
2018-09-11T05:24:11.427Z,15.00
2018-09-11T05:29:22.140Z,15.10
2018-09-11T05:31:50.661Z,15.10
2018-09-11T05:34:19.180Z,15.10
2018-09-11T05:36:47.729Z,15.20
2018-09-11T05:39:16.878Z,15.20
2018-09-11T05:41:45.514Z,15.20
2018-09-11T05:44:13.989Z,15.30
2018-09-11T05:46:43.186Z,15.40
2018-09-11T05:49:12.169Z,15.40
2018-09-11T05:51:40.669Z,15.50
2018-09-11T05:54:09.672Z,15.50
2018-09-11T05:56:38.194Z,15.60
2018-09-11T05:59:06.810Z,15.60
2018-09-11T06:01:35.366Z,15.60
2018-09-11T06:04:04.233Z,15.70
2018-09-11T06:06:32.740Z,15.70
2018-09-11T06:09:01.290Z,15.80
2018-09-11T06:11:29.828Z,15.80
2018-09-11T06:13:58.359Z,15.80
2018-09-11T06:16:26.956Z,15.90
2018-09-11T06:18:56.246Z,15.90
2018-09-11T06:21:24.808Z,16.00
2018-09-11T06:23:53.447Z,16.00
2018-09-11T06:26:21.960Z,16.00
2018-09-11T06:28:50.460Z,16.00
2018-09-11T06:31:19.069Z,16.00
2018-09-11T06:33:47.558Z,16.10
2018-09-11T06:36:16.176Z,16.10
2018-09-11T06:38:44.815Z,16.20
2018-09-11T06:41:14.080Z,16.10
2018-09-11T06:43:42.636Z,16.20
2018-09-11T06:46:11.151Z,16.10
2018-09-11T06:48:39.847Z,16.20
2018-09-11T06:51:08.423Z,16.20
2018-09-11T06:53:36.964Z,16.20
2018-09-11T06:56:05.557Z,16.20
2018-09-11T06:58:34.066Z,16.30
2018-09-11T07:01:02.671Z,16.40
2018-09-11T07:03:31.198Z,16.50
2018-09-11T07:05:59.805Z,16.60
2018-09-11T07:08:28.341Z,16.70
2018-09-11T07:10:56.890Z,16.80
2018-09-11T07:13:25.395Z,16.90
2018-09-11T07:15:54.601Z,17.00
2018-09-11T07:18:23.190Z,17.20
2018-09-11T07:20:51.715Z,17.30
2018-09-11T07:23:20.366Z,17.40
2018-09-11T07:25:48.850Z,17.60
2018-09-11T07:28:17.348Z,17.70
2018-09-11T07:30:45.835Z,17.80
2018-09-11T07:33:14.330Z,18.00
2018-09-11T07:35:42.963Z,18.10
2018-09-11T07:38:11.469Z,18.30
2018-09-11T07:40:39.950Z,18.50
2018-09-11T07:43:08.569Z,18.70
2018-09-11T07:45:37.139Z,19.10
2018-09-11T07:48:05.592Z,19.30
2018-09-11T07:50:34.256Z,19.40
2018-09-11T07:53:02.925Z,19.70
2018-09-11T07:55:31.363Z,20.00
2018-09-11T07:57:59.983Z,20.10
2018-09-11T08:00:29.032Z,20.00
2018-09-11T08:02:58.386Z,20.30
2018-09-11T08:05:27.103Z,20.40
2018-09-11T08:07:55.648Z,20.40
2018-09-11T08:10:30.652Z,20.70
2018-09-11T08:12:59.174Z,21.00
2018-09-11T08:15:27.825Z,21.00
2018-09-11T08:17:57.053Z,21.30
2018-09-11T08:20:25.571Z,21.50
2018-09-11T08:22:54.531Z,22.10
2018-09-11T08:25:23.089Z,22.30
2018-09-11T08:27:51.569Z,22.30
2018-09-11T08:30:20.401Z,22.40
2018-09-11T08:32:48.946Z,22.50
2018-09-11T08:35:17.766Z,22.50
2018-09-11T08:37:46.993Z,22.40
2018-09-11T08:40:15.579Z,22.40
2018-09-11T08:42:44.299Z,22.60
2018-09-11T08:45:12.838Z,22.90
2018-09-11T08:47:42.063Z,23.10
2018-09-11T08:50:11.127Z,23.20
2018-09-11T08:52:40.429Z,23.60
2018-09-11T08:55:09.384Z,23.70
2018-09-11T08:57:38.032Z,23.70
2018-09-11T09:00:07.423Z,23.60
2018-09-11T09:02:36.592Z,23.70
2018-09-11T09:05:05.287Z,23.80
2018-09-11T09:07:33.809Z,23.80
2018-09-11T09:10:02.507Z,23.90
2018-09-11T09:12:31.072Z,24.20
2018-09-11T09:14:59.633Z,24.50
2018-09-11T09:17:28.775Z,24.60
2018-09-11T09:19:57.413Z,24.70
2018-09-11T09:22:26.030Z,24.60
2018-09-11T09:24:54.927Z,25.10
2018-09-11T09:27:23.501Z,25.30
2018-09-11T09:29:52.669Z,25.30
2018-09-11T09:32:21.449Z,25.40
2018-09-11T09:34:50.748Z,25.90
2018-09-11T09:37:19.360Z,25.80
2018-09-11T09:39:48.387Z,25.50
2018-09-11T09:42:17.417Z,25.60
2018-09-11T09:44:45.991Z,25.80
2018-09-11T09:47:20.885Z,25.90
2018-09-11T09:49:52.576Z,25.90
2018-09-11T09:52:21.117Z,25.60
2018-09-11T09:54:49.736Z,25.40
2018-09-11T09:57:18.376Z,25.40
2018-09-11T09:59:47.061Z,25.70
2018-09-11T10:02:22.059Z,26.00
2018-09-11T10:04:51.059Z,26.20
2018-09-11T10:07:21.152Z,26.20
2018-09-11T10:09:49.937Z,26.10
2018-09-11T10:12:18.647Z,26.10
2018-09-11T10:14:47.257Z,26.10
2018-09-11T10:17:16.402Z,26.10
2018-09-11T10:19:46.571Z,26.30
2018-09-11T10:22:15.207Z,26.10
2018-09-11T10:24:43.811Z,26.20
2018-09-11T10:27:13.179Z,26.30
2018-09-11T10:29:41.849Z,26.50
2018-09-11T10:32:10.442Z,26.60
2018-09-11T10:34:38.963Z,26.80
2018-09-11T10:37:08.066Z,27.00
2018-09-11T10:39:36.772Z,27.00
2018-09-11T10:42:05.685Z,27.10
2018-09-11T10:44:34.476Z,27.00
2018-09-11T10:47:03.055Z,27.10
2018-09-11T10:49:31.710Z,27.00
2018-09-11T10:52:00.448Z,27.00
2018-09-11T10:54:29.211Z,27.00
2018-09-11T10:56:58.133Z,26.90
2018-09-11T10:59:26.864Z,26.70
2018-09-11T11:01:55.736Z,26.80
2018-09-11T11:04:24.552Z,26.80
2018-09-11T11:06:53.152Z,26.70
2018-09-11T11:09:21.695Z,26.60
2018-09-11T11:11:50.865Z,26.70
2018-09-11T11:14:19.736Z,26.80
2018-09-11T11:16:48.342Z,26.80
2018-09-11T11:19:17.056Z,26.80
2018-09-11T11:21:45.730Z,26.60
2018-09-11T11:24:15.010Z,26.40
2018-09-11T11:26:43.655Z,26.40
2018-09-11T11:29:13.532Z,26.50
2018-09-11T11:31:42.121Z,26.50
2018-09-11T11:34:10.670Z,26.60
2018-09-11T11:36:39.323Z,26.70
2018-09-11T11:39:10.345Z,26.60
2018-09-11T11:41:38.941Z,26.50
2018-09-11T11:44:07.559Z,26.50
2018-09-11T11:46:36.065Z,26.40
2018-09-11T11:49:05.863Z,26.40
2018-09-11T11:51:34.437Z,26.40
2018-09-11T11:54:03.115Z,26.60
2018-09-11T11:56:31.617Z,26.60
2018-09-11T11:59:00.171Z,26.50
2018-09-11T12:01:29.553Z,26.50
2018-09-11T12:03:58.049Z,26.50
2018-09-11T12:06:33.308Z,26.60
2018-09-11T12:09:01.898Z,26.60
2018-09-11T12:11:31.534Z,26.60
2018-09-11T12:14:00.830Z,26.60
2018-09-11T12:16:29.400Z,26.70
2018-09-11T12:18:58.051Z,26.80
2018-09-11T12:21:27.161Z,26.80
2018-09-11T12:23:56.371Z,26.90
2018-09-11T12:26:24.973Z,26.90
2018-09-11T12:28:54.092Z,26.90
2018-09-11T12:31:23.799Z,26.90
2018-09-11T12:33:52.461Z,26.90
2018-09-11T12:36:21.034Z,27.00
2018-09-11T12:38:49.744Z,27.00
2018-09-11T12:41:18.344Z,26.90
2018-09-11T12:43:47.265Z,27.00
2018-09-11T12:46:16.061Z,27.10
2018-09-11T12:48:44.681Z,27.20
2018-09-11T12:51:13.228Z,27.20
2018-09-11T12:53:42.204Z,27.20
2018-09-11T12:56:10.851Z,27.20
2018-09-11T12:58:39.486Z,27.20
2018-09-11T13:01:07.996Z,27.30
2018-09-11T13:03:36.657Z,27.40
2018-09-11T13:06:05.246Z,27.30
2018-09-11T13:08:33.776Z,27.30
2018-09-11T13:11:02.997Z,27.20
2018-09-11T13:13:31.638Z,27.30
2018-09-11T13:16:00.307Z,27.30
2018-09-11T13:18:29.729Z,27.40
2018-09-11T13:20:58.257Z,27.40
2018-09-11T13:23:26.758Z,27.50
2018-09-11T13:25:56.095Z,27.50
2018-09-11T13:28:24.939Z,27.50
2018-09-11T13:30:53.524Z,27.60
2018-09-11T13:33:22.119Z,27.60
2018-09-11T13:35:50.628Z,27.60
2018-09-11T13:38:19.266Z,27.60
2018-09-11T13:40:47.840Z,27.60
2018-09-11T13:43:16.405Z,27.60
2018-09-11T13:45:45.863Z,27.60
2018-09-11T13:48:14.745Z,27.60
2018-09-11T13:50:44.172Z,27.60
2018-09-11T13:53:13.508Z,27.70
2018-09-11T13:55:43.273Z,27.70
2018-09-11T13:58:12.353Z,27.70
2018-09-11T14:00:41.041Z,27.70
2018-09-11T14:03:10.223Z,27.70
2018-09-11T14:05:39.209Z,27.70
2018-09-11T14:08:08.662Z,27.70
2018-09-11T14:10:38.102Z,27.70
2018-09-11T14:13:07.696Z,27.70
2018-09-11T14:15:36.627Z,27.60
2018-09-11T14:18:06.166Z,27.50
2018-09-11T14:20:35.875Z,27.40
2018-09-11T14:23:06.684Z,27.40
2018-09-11T14:25:35.671Z,27.50
2018-09-11T14:28:04.288Z,27.40
2018-09-11T14:30:32.935Z,27.40
2018-09-11T14:33:01.621Z,27.50
2018-09-11T14:35:30.584Z,27.50
2018-09-11T14:37:59.359Z,27.50
2018-09-11T14:40:39.521Z,27.50
2018-09-11T14:43:08.493Z,27.60
2018-09-11T14:45:39.510Z,27.70
2018-09-11T14:48:08.685Z,27.70
2018-09-11T14:50:37.328Z,27.70
2018-09-11T14:53:07.508Z,27.70
2018-09-11T14:55:36.606Z,27.80
2018-09-11T14:58:05.446Z,27.70
2018-09-11T15:00:36.249Z,27.70
2018-09-11T15:03:05.093Z,27.60
2018-09-11T15:05:33.657Z,27.60
2018-09-11T15:08:02.803Z,27.50
2018-09-11T15:10:31.376Z,27.50
2018-09-11T15:13:00.261Z,27.50
2018-09-11T15:15:29.660Z,27.50
2018-09-11T15:17:58.950Z,27.40
2018-09-11T15:20:27.663Z,27.40
2018-09-11T15:22:56.421Z,27.30
2018-09-11T15:25:25.120Z,27.40
2018-09-11T15:27:53.937Z,27.40
2018-09-11T15:30:22.807Z,27.30
2018-09-11T15:32:52.520Z,27.30
2018-09-11T15:35:21.057Z,27.30
2018-09-11T15:37:49.602Z,27.30
2018-09-11T15:40:18.339Z,27.30
2018-09-11T15:42:47.651Z,27.30
2018-09-11T15:45:16.164Z,27.30
2018-09-11T15:47:44.828Z,27.20
2018-09-11T15:50:14.369Z,27.20
2018-09-11T15:52:43.673Z,27.20
2018-09-11T15:55:34.182Z,27.20
2018-09-11T15:58:02.972Z,27.20
2018-09-11T16:00:31.602Z,27.20
2018-09-11T16:03:00.256Z,27.10
2018-09-11T16:05:28.775Z,27.00
2018-09-11T16:07:57.733Z,26.90
2018-09-11T16:10:26.370Z,27.00
2018-09-11T16:12:55.257Z,26.90
2018-09-11T16:15:24.211Z,26.80
2018-09-11T16:17:53.111Z,26.90
2018-09-11T16:20:21.739Z,26.80
2018-09-11T16:22:51.335Z,26.80
2018-09-11T16:25:20.538Z,26.80
2018-09-11T16:27:49.064Z,26.80
2018-09-11T16:30:17.884Z,26.80
2018-09-11T16:32:46.928Z,26.70
2018-09-11T16:35:15.552Z,26.70
2018-09-11T16:37:44.092Z,26.80
2018-09-11T16:40:13.197Z,26.70
2018-09-11T16:42:42.618Z,26.60
2018-09-11T16:45:11.927Z,26.60
2018-09-11T16:47:40.644Z,26.60
2018-09-11T16:50:09.400Z,26.50
2018-09-11T16:52:38.494Z,26.50
2018-09-11T16:55:07.258Z,26.50
2018-09-11T16:57:35.881Z,26.30
2018-09-11T17:00:04.687Z,26.30
2018-09-11T17:02:33.245Z,26.20
2018-09-11T17:05:02.227Z,26.10
2018-09-11T17:07:30.763Z,26.10
2018-09-11T17:09:59.233Z,26.00
2018-09-11T17:12:28.512Z,25.90
2018-09-11T17:14:57.819Z,25.90
2018-09-11T17:17:26.819Z,25.80
2018-09-11T17:19:55.415Z,25.70
2018-09-11T17:22:24.105Z,25.70
2018-09-11T17:24:52.616Z,25.70
2018-09-11T17:27:21.941Z,25.60
2018-09-11T17:29:50.464Z,25.50
2018-09-11T17:32:19.049Z,25.50
2018-09-11T17:34:47.582Z,25.50
2018-09-11T17:37:16.611Z,25.40
2018-09-11T17:39:45.102Z,25.20
2018-09-11T17:42:13.614Z,25.10
2018-09-11T17:44:42.133Z,25.00
2018-09-11T17:47:11.867Z,25.00
2018-09-11T17:49:40.407Z,24.90
2018-09-11T17:52:08.973Z,24.80
2018-09-11T17:54:37.473Z,24.70
2018-09-11T17:57:05.996Z,24.50
2018-09-11T17:59:34.554Z,24.40
2018-09-11T18:02:03.122Z,24.20
2018-09-11T18:04:31.576Z,24.20
2018-09-11T18:07:00.173Z,24.10
2018-09-11T18:09:29.370Z,24.00
2018-09-11T18:11:57.895Z,23.90
2018-09-11T18:14:26.415Z,23.70
2018-09-11T18:16:55.015Z,23.60
2018-09-11T18:19:23.502Z,23.60
2018-09-11T18:21:52.838Z,23.40
2018-09-11T18:24:21.380Z,23.30
2018-09-11T18:26:49.879Z,23.20
2018-09-11T18:29:18.339Z,22.90
2018-09-11T18:31:46.838Z,22.80
2018-09-11T18:34:15.680Z,22.70
2018-09-11T18:36:44.781Z,22.60
2018-09-11T18:39:13.213Z,22.50
2018-09-11T18:41:41.811Z,22.40
2018-09-11T18:44:10.401Z,22.30
2018-09-11T18:46:38.957Z,22.20
2018-09-11T18:49:08.455Z,22.10
2018-09-11T18:51:37.129Z,22.00
2018-09-11T18:54:05.728Z,21.90
2018-09-11T18:56:34.225Z,21.90
2018-09-11T18:59:02.820Z,21.80
2018-09-11T19:01:31.488Z,21.80
2018-09-11T19:04:00.111Z,21.70
2018-09-11T19:06:28.775Z,21.70
2018-09-11T19:08:57.450Z,21.60
2018-09-11T19:11:26.017Z,21.60
2018-09-11T19:13:54.631Z,21.50
2018-09-11T19:16:23.443Z,21.50
2018-09-11T19:18:51.967Z,21.40
2018-09-11T19:21:20.550Z,21.40
2018-09-11T19:23:49.125Z,21.30
2018-09-11T19:26:17.788Z,21.20
2018-09-11T19:28:46.372Z,21.20
2018-09-11T19:31:14.867Z,21.20
2018-09-11T19:33:43.346Z,21.10
2018-09-11T19:36:12.162Z,21.10
2018-09-11T19:38:41.200Z,21.00
2018-09-11T19:41:09.788Z,20.90
2018-09-11T19:43:38.719Z,20.80
2018-09-11T19:46:07.372Z,20.80
2018-09-11T19:48:36.015Z,20.70
2018-09-11T19:51:04.543Z,20.80
2018-09-11T19:53:33.013Z,20.80
2018-09-11T19:56:01.675Z,20.80
2018-09-11T19:58:30.206Z,20.90
2018-09-11T20:00:58.859Z,20.80
2018-09-11T20:03:27.442Z,20.90
2018-09-11T20:05:56.076Z,20.90
2018-09-11T20:08:24.595Z,20.90
2018-09-11T20:10:53.088Z,20.90
2018-09-11T20:13:21.618Z,20.90
2018-09-11T20:15:50.400Z,20.90
2018-09-11T20:18:18.902Z,20.90
2018-09-11T20:20:47.370Z,20.90
2018-09-11T20:23:16.070Z,20.90
2018-09-11T20:25:44.677Z,20.90
2018-09-11T20:28:13.161Z,20.80
2018-09-11T20:30:41.606Z,20.80
2018-09-11T20:33:10.151Z,20.90
2018-09-11T20:35:38.844Z,20.80
2018-09-11T20:38:07.671Z,20.80
2018-09-11T20:40:36.266Z,20.80
2018-09-11T20:43:05.227Z,20.80
2018-09-11T20:45:33.778Z,20.80
2018-09-11T20:48:03.059Z,20.70
2018-09-11T20:50:31.563Z,20.70
2018-09-11T20:53:00.044Z,20.70
2018-09-11T20:55:29.330Z,20.70
2018-09-11T20:57:57.828Z,20.60
2018-09-11T21:00:26.351Z,20.60
2018-09-11T21:02:54.947Z,20.60
2018-09-11T21:05:24.187Z,20.60
2018-09-11T21:07:52.735Z,20.50
2018-09-11T21:10:21.720Z,20.50
2018-09-11T21:12:50.196Z,20.50
2018-09-11T21:15:18.738Z,20.50
2018-09-11T21:17:47.890Z,20.50
2018-09-11T21:20:16.516Z,20.50
2018-09-11T21:22:45.031Z,20.50
2018-09-11T21:25:13.531Z,20.40
2018-09-11T21:27:41.999Z,20.40
2018-09-11T21:30:10.520Z,20.40
2018-09-11T21:32:39.025Z,20.40
2018-09-11T21:35:08.195Z,20.40
2018-09-11T21:37:36.654Z,20.40
2018-09-11T21:40:05.857Z,20.40
2018-09-11T21:42:35.167Z,20.30
2018-09-11T21:45:03.692Z,20.30
2018-09-11T21:47:32.218Z,20.30
2018-09-11T21:50:00.745Z,20.30
2018-09-11T21:52:29.231Z,20.30
2018-09-11T21:54:57.735Z,20.20
2018-09-11T21:57:26.246Z,20.20
2018-09-11T21:59:54.735Z,20.10
2018-09-11T22:02:23.232Z,20.10
2018-09-11T22:04:51.800Z,20.10
2018-09-11T22:07:20.493Z,20.00
2018-09-11T22:09:49.155Z,20.00
2018-09-11T22:12:17.651Z,19.90
2018-09-11T22:14:46.862Z,20.00
2018-09-11T22:17:15.328Z,19.90
2018-09-11T22:19:43.901Z,19.90
2018-09-11T22:22:12.411Z,19.90
2018-09-11T22:24:40.956Z,19.80
2018-09-11T22:27:10.174Z,19.80
2018-09-11T22:29:38.664Z,19.70
2018-09-11T22:32:07.195Z,19.70
2018-09-11T22:34:36.246Z,19.70
2018-09-11T22:37:04.734Z,19.70
2018-09-11T22:39:33.224Z,19.60
2018-09-11T22:42:02.265Z,19.60
2018-09-11T22:44:30.724Z,19.60
2018-09-11T22:46:59.318Z,19.60
2018-09-11T22:49:27.831Z,19.50
2018-09-11T22:51:56.994Z,19.50
2018-09-11T22:54:25.539Z,19.50
2018-09-11T22:56:54.754Z,19.40
2018-09-11T22:59:23.385Z,19.40
2018-09-11T23:01:53.242Z,19.40
2018-09-11T23:04:21.702Z,19.40
2018-09-11T23:06:50.634Z,19.30
2018-09-11T23:09:19.858Z,19.30
2018-09-11T23:11:48.306Z,19.20
2018-09-11T23:14:16.818Z,19.20
2018-09-11T23:16:45.839Z,19.20
2018-09-11T23:19:14.830Z,19.20
2018-09-11T23:21:43.510Z,19.20
2018-09-11T23:24:12.338Z,19.20
2018-09-11T23:26:40.929Z,19.10
2018-09-11T23:29:09.447Z,19.10
2018-09-11T23:31:38.094Z,19.10
2018-09-11T23:34:06.854Z,19.00
2018-09-11T23:36:35.296Z,19.10
2018-09-11T23:39:04.767Z,19.00
2018-09-11T23:41:33.264Z,19.00
2018-09-11T23:44:01.822Z,19.00
2018-09-11T23:46:31.167Z,19.00
2018-09-11T23:48:59.647Z,19.00
2018-09-11T23:51:28.142Z,19.00
2018-09-11T23:53:57.413Z,18.90
2018-09-11T23:56:25.950Z,18.80
2018-09-11T23:58:54.525Z,18.80
